createdAt,value
2022-11-25T00:01:18.722Z,3.30
2022-11-25T00:03:46.464Z,2.50
2022-11-25T00:06:18.993Z,2.60
2022-11-25T00:08:47.320Z,2.85
2022-11-25T00:11:15.771Z,2.72
2022-11-25T00:13:44.027Z,4.25
2022-11-25T00:16:13.465Z,3.08
2022-11-25T00:18:40.562Z,5.93
2022-11-25T00:21:08.920Z,7.70
2022-11-25T00:23:37.028Z,3.10
2022-11-25T00:26:12.456Z,3.92
2022-11-25T00:28:40.755Z,2.20
2022-11-25T00:31:13.342Z,3.67
2022-11-25T00:33:41.022Z,3.63
2022-11-25T00:36:16.036Z,4.32
2022-11-25T00:38:42.757Z,3.20
2022-11-25T00:41:28.030Z,3.30
2022-11-25T00:44:13.399Z,3.53
2022-11-25T00:46:40.214Z,2.72
2022-11-25T00:49:07.560Z,3.08
2022-11-25T00:51:34.303Z,3.10
2022-11-25T00:54:01.074Z,3.53
2022-11-25T00:56:28.302Z,3.42
2022-11-25T00:58:55.068Z,3.45
2022-11-25T01:01:22.464Z,3.60
2022-11-25T01:03:50.472Z,3.05
2022-11-25T01:06:17.240Z,3.50
2022-11-25T01:08:44.424Z,2.80
2022-11-25T01:11:15.818Z,4.85
2022-11-25T01:13:42.716Z,14.57
2022-11-25T01:16:12.764Z,5.18
2022-11-25T01:18:39.578Z,5.50
2022-11-25T01:21:18.951Z,4.47
2022-11-25T01:23:46.884Z,4.05
2022-11-25T01:26:16.110Z,4.35
2022-11-25T01:28:44.512Z,4.28
2022-11-25T01:31:15.824Z,4.30
2022-11-25T01:33:43.646Z,11.52
2022-11-25T01:36:13.034Z,24.63
2022-11-25T01:38:40.503Z,17.00
2022-11-25T01:41:10.584Z,9.77
2022-11-25T01:43:37.921Z,8.88
2022-11-25T01:46:26.128Z,7.00
2022-11-25T01:49:03.618Z,4.88
2022-11-25T01:51:56.524Z,4.60
2022-11-25T01:54:25.989Z,5.18
2022-11-25T01:57:08.768Z,4.93
2022-11-25T01:59:39.922Z,5.72
2022-11-25T02:02:07.416Z,5.32
2022-11-25T02:04:37.329Z,4.80
2022-11-25T02:07:12.378Z,4.10
2022-11-25T02:09:42.729Z,4.50
2022-11-25T02:12:10.532Z,3.67
2022-11-25T02:14:38.076Z,4.50
2022-11-25T02:17:05.071Z,3.85
2022-11-25T02:19:51.687Z,4.22
2022-11-25T02:22:42.035Z,5.78
2022-11-25T02:25:23.524Z,4.95
2022-11-25T02:27:55.013Z,4.55
2022-11-25T02:30:21.866Z,5.03
2022-11-25T02:32:49.666Z,4.82
2022-11-25T02:35:24.816Z,5.50
2022-11-25T02:37:52.248Z,4.82
2022-11-25T02:40:19.036Z,6.65
2022-11-25T02:42:47.812Z,8.63
2022-11-25T02:45:19.994Z,5.78
2022-11-25T02:47:46.633Z,6.65
2022-11-25T02:50:13.909Z,5.10
2022-11-25T02:52:40.676Z,8.30
2022-11-25T02:55:09.591Z,5.15
2022-11-25T02:57:36.330Z,7.35
2022-11-25T03:00:04.571Z,10.93
2022-11-25T03:02:31.307Z,6.50
2022-11-25T03:05:01.231Z,6.68
2022-11-25T03:07:27.963Z,8.95
2022-11-25T03:09:54.664Z,13.43
2022-11-25T03:12:21.398Z,7.60
2022-11-25T03:14:53.045Z,14.35
2022-11-25T03:17:19.841Z,6.85
2022-11-25T03:19:46.766Z,17.58
2022-11-25T03:22:13.489Z,9.65
2022-11-25T03:24:40.181Z,12.02
2022-11-25T03:27:07.851Z,12.70
2022-11-25T03:29:34.571Z,12.48
2022-11-25T03:32:04.314Z,11.13
2022-11-25T03:34:35.053Z,22.63
2022-11-25T03:37:03.053Z,15.15
2022-11-25T03:39:32.103Z,20.75
2022-11-25T03:41:59.062Z,10.57
2022-11-25T03:44:25.815Z,11.73
2022-11-25T03:46:52.766Z,6.65
2022-11-25T03:49:19.438Z,9.27
2022-11-25T03:51:46.141Z,6.60
2022-11-25T03:54:14.843Z,7.95
2022-11-25T03:57:00.140Z,7.10
2022-11-25T03:59:28.684Z,6.75
2022-11-25T04:01:55.506Z,7.55
2022-11-25T04:04:22.609Z,7.22
2022-11-25T04:06:49.503Z,5.68
2022-11-25T04:09:17.394Z,8.43
2022-11-25T04:12:02.762Z,11.50
2022-11-25T04:14:38.965Z,13.48
2022-11-25T04:17:05.761Z,12.57
2022-11-25T04:19:35.771Z,11.10
2022-11-25T04:22:03.402Z,9.95
2022-11-25T04:24:31.765Z,11.70
2022-11-25T04:26:58.460Z,10.07
2022-11-25T04:29:26.032Z,8.43
2022-11-25T04:31:53.444Z,22.30
2022-11-25T04:34:20.118Z,15.20
2022-11-25T04:36:49.283Z,15.00
2022-11-25T04:39:16.133Z,21.02
2022-11-25T04:41:43.179Z,18.02
2022-11-25T04:44:10.332Z,8.55
2022-11-25T04:46:43.949Z,11.68
2022-11-25T04:49:11.580Z,8.02
2022-11-25T04:51:38.330Z,7.25
2022-11-25T04:54:06.772Z,10.07
2022-11-25T04:56:35.718Z,8.77
2022-11-25T04:59:21.073Z,8.18
2022-11-25T05:01:48.053Z,8.48
2022-11-25T05:04:25.792Z,9.55
2022-11-25T05:06:52.423Z,8.88
2022-11-25T05:09:20.643Z,9.05
2022-11-25T05:11:56.177Z,12.43
2022-11-25T05:14:24.049Z,11.95
2022-11-25T05:16:51.440Z,10.60
2022-11-25T05:19:18.631Z,9.13
2022-11-25T05:21:45.529Z,7.03
2022-11-25T05:24:12.436Z,6.43
2022-11-25T05:26:39.130Z,5.85
2022-11-25T05:29:05.955Z,6.82
2022-11-25T05:31:34.116Z,7.03
2022-11-25T05:34:02.354Z,7.90
2022-11-25T05:36:30.433Z,10.73
2022-11-25T05:38:58.266Z,12.57
2022-11-25T05:41:36.832Z,13.05
2022-11-25T05:44:05.354Z,13.50
2022-11-25T05:46:33.684Z,8.10
2022-11-25T05:49:00.523Z,8.27
2022-11-25T05:51:29.373Z,8.93
2022-11-25T05:53:57.561Z,9.23
2022-11-25T05:56:28.863Z,8.23
2022-11-25T05:59:14.134Z,8.55
2022-11-25T06:01:53.851Z,9.82
2022-11-25T06:04:20.519Z,8.73
2022-11-25T06:06:47.203Z,10.18
2022-11-25T06:09:14.713Z,10.35
2022-11-25T06:11:41.416Z,9.82
2022-11-25T06:14:08.666Z,10.05
2022-11-25T06:16:35.419Z,11.68
2022-11-25T06:19:22.329Z,8.75
2022-11-25T06:21:49.040Z,6.93
2022-11-25T06:24:16.236Z,9.10
2022-11-25T06:26:45.177Z,7.70
2022-11-25T06:29:11.856Z,8.50
2022-11-25T06:31:40.924Z,10.73
2022-11-25T06:34:26.223Z,9.20
2022-11-25T06:36:53.538Z,9.80
2022-11-25T06:39:20.373Z,9.75
2022-11-25T06:41:47.281Z,11.52
2022-11-25T06:44:14.654Z,7.43
2022-11-25T06:46:41.349Z,8.45
2022-11-25T06:49:08.009Z,10.27
2022-11-25T06:51:34.649Z,17.20
2022-11-25T06:54:01.312Z,11.65
2022-11-25T06:56:28.429Z,13.30
2022-11-25T06:58:55.835Z,12.50
2022-11-25T07:01:23.753Z,15.82
2022-11-25T07:04:03.238Z,12.77
2022-11-25T07:06:31.461Z,12.52
2022-11-25T07:08:58.625Z,11.38
2022-11-25T07:11:26.549Z,13.52
2022-11-25T07:13:56.068Z,13.63
2022-11-25T07:16:22.905Z,12.13
2022-11-25T07:18:49.720Z,12.27
2022-11-25T07:21:21.503Z,13.20
2022-11-25T07:23:48.867Z,12.88
2022-11-25T07:26:21.892Z,11.45
2022-11-25T07:28:50.316Z,13.02
2022-11-25T07:31:24.315Z,11.20
2022-11-25T07:33:56.279Z,10.10
2022-11-25T07:36:23.090Z,10.80
2022-11-25T07:38:49.824Z,11.10
2022-11-25T07:41:22.732Z,12.52
2022-11-25T07:43:52.656Z,9.55
2022-11-25T07:46:27.030Z,10.13
2022-11-25T07:48:59.672Z,10.48
2022-11-25T07:51:32.913Z,9.77
2022-11-25T07:54:01.515Z,11.30
2022-11-25T07:56:29.801Z,10.85
2022-11-25T07:58:57.730Z,10.40
2022-11-25T08:01:24.878Z,10.50
2022-11-25T08:03:52.284Z,11.55
2022-11-25T08:06:24.677Z,10.23
2022-11-25T08:11:30.161Z,12.68
2022-11-25T08:13:57.624Z,10.45
2022-11-25T08:16:31.414Z,9.68
2022-11-25T08:19:03.968Z,12.70
2022-11-25T08:23:57.814Z,11.45
2022-11-25T08:26:32.808Z,11.05
2022-11-25T08:29:00.927Z,9.77
2022-11-25T08:31:33.389Z,11.18
2022-11-25T08:36:28.751Z,10.88
2022-11-25T08:39:00.229Z,12.10
2022-11-25T08:41:30.800Z,14.13
2022-11-25T08:43:59.082Z,11.40
2022-11-25T08:46:29.231Z,11.80
2022-11-25T08:48:56.867Z,11.02
2022-11-25T08:51:27.908Z,12.93
2022-11-25T08:53:55.044Z,14.70
2022-11-25T08:56:26.276Z,12.80
2022-11-25T08:58:54.297Z,14.33
2022-11-25T09:01:23.375Z,15.55
2022-11-25T09:03:52.381Z,11.60
2022-11-25T09:06:19.574Z,11.52
2022-11-25T09:08:47.228Z,10.30
2022-11-25T09:11:15.110Z,11.40
2022-11-25T09:13:41.858Z,12.48
2022-11-25T09:16:09.626Z,9.85
2022-11-25T09:18:37.242Z,10.75
2022-11-25T09:21:11.200Z,9.68
2022-11-25T09:23:39.092Z,10.20
2022-11-25T09:26:06.800Z,9.15
2022-11-25T09:28:34.760Z,10.55
2022-11-25T09:31:08.263Z,8.25
2022-11-25T09:33:35.249Z,9.90
2022-11-25T09:36:03.135Z,9.38
2022-11-25T09:38:29.784Z,12.25
2022-11-25T09:41:15.301Z,12.35
2022-11-25T09:44:12.329Z,11.02
2022-11-25T09:46:46.177Z,13.15
2022-11-25T09:49:48.311Z,10.98
2022-11-25T09:52:24.068Z,9.55
2022-11-25T09:54:58.451Z,12.63
2022-11-25T09:57:46.551Z,12.00
2022-11-25T10:00:16.347Z,11.80
2022-11-25T10:02:54.495Z,9.88
2022-11-25T10:05:24.077Z,7.72
2022-11-25T10:07:55.819Z,7.95
2022-11-25T10:10:36.596Z,8.10
2022-11-25T10:13:05.625Z,11.95
2022-11-25T10:15:43.211Z,6.10
2022-11-25T10:18:26.127Z,8.32
2022-11-25T10:20:54.133Z,9.48
2022-11-25T10:23:50.171Z,9.50
2022-11-25T10:26:21.360Z,9.07
2022-11-25T10:29:19.804Z,8.35
2022-11-25T10:31:46.489Z,9.05
2022-11-25T10:34:25.205Z,10.07
2022-11-25T10:36:52.996Z,9.38
2022-11-25T10:39:27.912Z,9.07
2022-11-25T10:42:04.738Z,11.88
2022-11-25T10:44:39.682Z,7.55
2022-11-25T10:47:14.367Z,10.20
2022-11-25T10:49:47.252Z,8.68
2022-11-25T10:52:14.455Z,7.47
2022-11-25T10:54:41.621Z,6.05
2022-11-25T10:57:20.432Z,7.47
2022-11-25T10:59:58.731Z,8.80
2022-11-25T11:02:35.452Z,8.88
2022-11-25T11:05:09.605Z,57.25
2022-11-25T11:07:39.371Z,10.98
2022-11-25T11:10:09.108Z,8.30
2022-11-25T11:12:35.770Z,7.93
2022-11-25T11:15:21.113Z,6.38
2022-11-25T11:17:48.506Z,9.70
2022-11-25T11:20:27.357Z,7.53
2022-11-25T11:23:14.007Z,7.45
2022-11-25T11:25:42.797Z,7.57
2022-11-25T11:28:34.828Z,7.82
2022-11-25T11:31:10.042Z,8.45
2022-11-25T11:33:54.480Z,9.10
2022-11-25T11:36:48.424Z,11.90
2022-11-25T11:39:15.015Z,7.35
2022-11-25T11:41:46.736Z,9.48
2022-11-25T11:44:22.585Z,8.10
2022-11-25T11:46:49.254Z,7.68
2022-11-25T11:49:42.684Z,10.43
2022-11-25T11:52:20.974Z,15.00
2022-11-25T11:55:00.635Z,8.43
2022-11-25T11:57:34.388Z,10.98
2022-11-25T12:00:09.207Z,11.63
2022-11-25T12:03:12.514Z,9.38
2022-11-25T12:05:39.904Z,14.10
2022-11-25T12:08:34.386Z,25.08
2022-11-25T12:11:05.862Z,15.48
2022-11-25T12:14:01.446Z,14.80
2022-11-25T12:16:39.120Z,10.20
2022-11-25T12:19:24.032Z,11.30
2022-11-25T12:22:17.290Z,11.57
2022-11-25T12:25:06.354Z,9.07
2022-11-25T12:27:52.903Z,11.18
2022-11-25T12:30:22.055Z,12.43
2022-11-25T12:32:52.437Z,11.40
2022-11-25T12:35:22.061Z,13.27
2022-11-25T12:38:26.045Z,11.55
2022-11-25T12:41:37.162Z,11.23
2022-11-25T12:44:12.952Z,12.07
2022-11-25T12:46:52.079Z,7.65
2022-11-25T12:49:24.612Z,10.35
2022-11-25T12:52:00.418Z,9.23
2022-11-25T12:54:37.863Z,10.80
2022-11-25T12:57:36.886Z,14.13
2022-11-25T13:00:42.391Z,7.50
2022-11-25T13:03:30.886Z,13.00
2022-11-25T13:06:16.720Z,10.70
2022-11-25T13:08:52.456Z,12.70
2022-11-25T13:11:43.975Z,14.95
2022-11-25T13:14:19.578Z,8.70
2022-11-25T13:16:49.891Z,6.75
2022-11-25T13:19:19.251Z,8.35
2022-11-25T13:21:57.343Z,7.43
2022-11-25T13:24:34.525Z,4.80
2022-11-25T13:27:01.849Z,6.22
2022-11-25T13:29:28.701Z,5.35
2022-11-25T13:32:02.376Z,5.80
2022-11-25T13:34:31.275Z,6.25
2022-11-25T13:37:00.248Z,9.40
2022-11-25T13:39:31.454Z,4.55
2022-11-25T13:42:21.499Z,5.88
2022-11-25T13:44:57.626Z,5.60
2022-11-25T13:47:33.083Z,4.72
2022-11-25T13:50:11.878Z,5.78
2022-11-25T13:52:44.052Z,4.90
2022-11-25T13:55:26.422Z,9.85
2022-11-25T13:58:16.728Z,6.18
2022-11-25T14:00:50.555Z,10.95
2022-11-25T14:03:20.055Z,13.57
2022-11-25T14:05:54.357Z,7.25
2022-11-25T14:08:21.102Z,5.13
2022-11-25T14:11:26.262Z,6.63
2022-11-25T14:14:06.974Z,5.22
2022-11-25T14:16:36.678Z,6.78
2022-11-25T14:19:51.082Z,6.93
2022-11-25T14:22:21.048Z,6.10
2022-11-25T14:25:00.904Z,6.10
2022-11-25T14:27:31.895Z,5.43
2022-11-25T14:30:01.415Z,8.63
2022-11-25T14:32:47.682Z,6.95
2022-11-25T14:35:22.558Z,9.35
2022-11-25T14:38:00.004Z,9.98
2022-11-25T14:40:44.720Z,9.70
2022-11-25T14:43:20.045Z,8.10
2022-11-25T14:45:46.894Z,5.78
2022-11-25T14:48:14.704Z,6.45
2022-11-25T14:51:02.502Z,8.60
2022-11-25T14:53:30.819Z,6.75
2022-11-25T14:56:00.271Z,5.95
2022-11-25T14:58:27.588Z,4.13
2022-11-25T15:00:57.218Z,4.00
2022-11-25T15:03:24.072Z,3.72
2022-11-25T15:06:03.298Z,4.80
2022-11-25T15:08:39.477Z,4.07
2022-11-25T15:11:19.267Z,6.90
2022-11-25T15:13:48.961Z,4.82
2022-11-25T15:16:19.779Z,7.10
2022-11-25T15:19:01.288Z,6.05
2022-11-25T15:21:31.765Z,4.03
2022-11-25T15:23:58.582Z,7.85
2022-11-25T15:26:28.502Z,6.47
2022-11-25T15:28:57.334Z,6.07
2022-11-25T15:31:33.358Z,4.53
2022-11-25T15:34:03.495Z,6.13
2022-11-25T15:36:30.637Z,6.65
2022-11-25T15:39:13.565Z,8.07
2022-11-25T15:41:42.643Z,4.45
2022-11-25T15:44:20.807Z,7.82
2022-11-25T15:47:16.322Z,9.82
2022-11-25T15:49:49.441Z,7.18
2022-11-25T15:52:19.223Z,7.88
2022-11-25T15:54:51.506Z,10.57
2022-11-25T16:00:13.417Z,6.22
2022-11-25T16:02:40.138Z,9.07
2022-11-25T16:05:13.163Z,9.77
2022-11-25T16:07:41.315Z,5.57
2022-11-25T16:10:48.979Z,8.82
2022-11-25T16:13:22.774Z,6.10
2022-11-25T16:15:49.729Z,6.47
2022-11-25T16:18:39.381Z,8.80
2022-11-25T16:21:18.677Z,7.95
2022-11-25T16:23:56.799Z,10.23
2022-11-25T16:26:50.986Z,6.47
2022-11-25T16:29:20.540Z,8.98
2022-11-25T16:31:47.202Z,6.50
2022-11-25T16:34:19.841Z,10.10
2022-11-25T16:36:46.787Z,7.95
2022-11-25T16:39:13.656Z,8.20
2022-11-25T16:41:41.929Z,7.82
2022-11-25T16:44:22.192Z,12.43
2022-11-25T16:46:48.824Z,7.78
2022-11-25T16:49:17.445Z,7.78
2022-11-25T16:51:44.170Z,9.68
2022-11-25T16:54:12.356Z,10.52
2022-11-25T16:56:41.204Z,9.57
2022-11-25T16:59:13.922Z,8.23
2022-11-25T17:01:40.705Z,9.60
2022-11-25T17:04:11.597Z,10.25
2022-11-25T17:06:38.299Z,11.15
2022-11-25T17:09:05.071Z,9.73
2022-11-25T17:11:44.975Z,7.32
2022-11-25T17:14:24.882Z,10.95
2022-11-25T17:16:51.865Z,10.63
2022-11-25T17:19:18.829Z,7.82
2022-11-25T17:21:45.684Z,8.30
2022-11-25T17:24:24.142Z,9.30
2022-11-25T17:27:05.357Z,11.23
2022-11-25T17:29:36.921Z,9.82
2022-11-25T17:32:04.881Z,9.48
2022-11-25T17:34:36.278Z,7.88
2022-11-25T17:37:13.109Z,10.20
2022-11-25T17:39:39.913Z,9.57
2022-11-25T17:42:06.911Z,9.18
2022-11-25T17:44:33.913Z,9.77
2022-11-25T17:47:00.585Z,13.20
2022-11-25T17:49:27.259Z,11.07
2022-11-25T17:51:53.962Z,9.35
2022-11-25T17:54:20.697Z,8.68
2022-11-25T17:56:52.000Z,12.40
2022-11-25T17:59:26.834Z,9.82
2022-11-25T18:01:53.635Z,11.27
2022-11-25T18:04:22.955Z,7.47
2022-11-25T18:06:49.706Z,9.25
2022-11-25T18:09:16.897Z,8.48
2022-11-25T18:11:48.235Z,10.07
2022-11-25T18:14:23.768Z,10.27
2022-11-25T18:16:50.533Z,8.98
2022-11-25T18:19:17.246Z,7.10
2022-11-25T18:21:43.927Z,5.25
2022-11-25T18:24:10.582Z,8.00
2022-11-25T18:26:47.385Z,7.78
2022-11-25T18:29:26.167Z,8.95
2022-11-25T18:31:55.823Z,10.07
2022-11-25T18:34:23.843Z,9.57
2022-11-25T18:36:51.664Z,10.68
2022-11-25T18:39:19.041Z,9.25
2022-11-25T18:41:47.178Z,7.38
2022-11-25T18:44:37.315Z,6.53
2022-11-25T18:47:05.489Z,7.70
2022-11-25T18:49:32.203Z,8.68
2022-11-25T18:51:58.852Z,8.93
2022-11-25T18:54:25.491Z,10.88
2022-11-25T18:56:52.875Z,10.57
2022-11-25T18:59:34.201Z,11.77
2022-11-25T19:02:01.206Z,11.60
2022-11-25T19:04:28.300Z,11.68
2022-11-25T19:06:54.959Z,6.38
2022-11-25T19:09:21.627Z,11.02
2022-11-25T19:11:52.571Z,16.77
2022-11-25T19:14:33.261Z,12.50
2022-11-25T19:17:06.416Z,13.57
2022-11-25T19:19:33.408Z,10.80
2022-11-25T19:22:01.539Z,10.98
2022-11-25T19:24:28.616Z,13.25
2022-11-25T19:26:57.056Z,8.77
2022-11-25T19:29:38.783Z,8.18
2022-11-25T19:32:26.336Z,10.85
2022-11-25T19:35:03.004Z,9.88
2022-11-25T19:37:32.691Z,9.65
2022-11-25T19:39:59.465Z,6.97
2022-11-25T19:42:28.315Z,9.73
2022-11-25T19:44:55.262Z,10.55
2022-11-25T19:47:24.347Z,9.93
2022-11-25T19:49:58.472Z,10.13
2022-11-25T19:52:35.996Z,9.57
2022-11-25T19:55:14.493Z,7.05
2022-11-25T19:57:41.432Z,9.30
2022-11-25T20:00:09.260Z,10.25
2022-11-25T20:02:36.168Z,7.60
2022-11-25T20:05:04.986Z,10.50
2022-11-25T20:07:32.224Z,10.15
2022-11-25T20:10:14.355Z,7.95
2022-11-25T20:12:41.423Z,12.98
2022-11-25T20:15:08.858Z,9.05
2022-11-25T20:17:37.742Z,11.85
2022-11-25T20:20:11.620Z,9.63
2022-11-25T20:22:42.900Z,14.75
2022-11-25T20:25:15.496Z,10.25
2022-11-25T20:27:42.201Z,12.55
2022-11-25T20:30:21.777Z,11.05
2022-11-25T20:32:48.493Z,11.30
2022-11-25T20:35:15.301Z,10.77
2022-11-25T20:37:54.345Z,15.00
2022-11-25T20:40:25.537Z,15.63
2022-11-25T20:42:53.268Z,11.98
2022-11-25T20:45:22.485Z,14.07
2022-11-25T20:47:50.939Z,10.10
2022-11-25T20:50:19.009Z,12.60
2022-11-25T20:52:46.508Z,12.00
2022-11-25T20:55:23.390Z,14.38
2022-11-25T20:57:54.428Z,18.50
2022-11-25T21:00:23.926Z,22.60
2022-11-25T21:02:51.263Z,41.03
2022-11-25T21:05:18.628Z,49.90
2022-11-25T21:07:46.677Z,51.67
2022-11-25T21:10:34.766Z,59.33
2022-11-25T21:13:08.245Z,29.00
2022-11-25T21:15:35.224Z,24.05
2022-11-25T21:18:02.225Z,20.40
2022-11-25T21:20:28.988Z,15.27
2022-11-25T21:22:58.463Z,16.02
2022-11-25T21:25:25.602Z,11.75
2022-11-25T21:27:52.566Z,10.70
2022-11-25T21:30:27.453Z,12.77
2022-11-25T21:32:57.061Z,9.32
2022-11-25T21:35:30.865Z,12.45
2022-11-25T21:37:58.976Z,11.38
2022-11-25T21:40:38.136Z,11.07
2022-11-25T21:43:07.025Z,9.93
2022-11-25T21:45:33.917Z,6.68
2022-11-25T21:48:01.252Z,8.10
2022-11-25T21:50:30.020Z,9.30
2022-11-25T21:52:57.168Z,8.35
2022-11-25T21:55:23.876Z,8.18
2022-11-25T21:57:51.646Z,7.13
2022-11-25T22:00:25.095Z,8.38
2022-11-25T22:02:52.616Z,14.23
2022-11-25T22:05:21.808Z,8.40
2022-11-25T22:07:48.510Z,10.13
2022-11-25T22:10:16.755Z,14.63
2022-11-25T22:12:46.014Z,9.93
2022-11-25T22:15:18.523Z,10.40
2022-11-25T22:17:45.762Z,6.63
2022-11-25T22:20:34.323Z,10.82
2022-11-25T22:23:01.872Z,8.52
2022-11-25T22:25:31.263Z,14.80
2022-11-25T22:27:58.852Z,10.82
2022-11-25T22:30:27.426Z,8.02
2022-11-25T22:33:02.343Z,9.70
2022-11-25T22:35:29.838Z,7.28
2022-11-25T22:37:57.275Z,10.10
2022-11-25T22:40:24.197Z,6.00
2022-11-25T22:42:52.109Z,11.65
2022-11-25T22:45:32.776Z,7.13
2022-11-25T22:48:03.124Z,10.15
2022-11-25T22:50:32.834Z,5.50
2022-11-25T22:53:00.884Z,9.90
2022-11-25T22:55:31.082Z,9.50
2022-11-25T22:57:59.844Z,9.48
2022-11-25T23:00:34.458Z,6.88
2022-11-25T23:03:05.899Z,10.23
2022-11-25T23:05:37.601Z,11.45
2022-11-25T23:08:35.151Z,8.33
2022-11-25T23:11:01.870Z,11.05
2022-11-25T23:13:28.523Z,6.78
2022-11-25T23:16:01.142Z,7.05
2022-11-25T23:18:40.900Z,8.50
2022-11-25T23:21:16.843Z,8.43
2022-11-25T23:23:44.073Z,7.82
2022-11-25T23:26:12.868Z,9.70
2022-11-25T23:28:39.676Z,9.40
2022-11-25T23:31:07.366Z,8.07
2022-11-25T23:33:48.647Z,4.78
2022-11-25T23:36:21.161Z,7.65
2022-11-25T23:38:59.950Z,10.10
2022-11-25T23:41:32.629Z,7.65
2022-11-25T23:44:13.056Z,4.40
2022-11-25T23:46:40.656Z,11.23
2022-11-25T23:49:18.672Z,6.03
2022-11-25T23:51:45.569Z,9.30
2022-11-25T23:54:16.748Z,7.07
2022-11-25T23:56:43.392Z,6.05
2022-11-25T23:59:13.904Z,14.50
